Time;durP1;ratioP1;P1;durP2;ratioP2;P2;SDS_P1;SDS_P2;PMS_P1;PMS_P2;Temp;Humidity;BMP_temperature;BMP_pressure;BME280_temperature;BME280_humidity;BME280_pressure;Samples;Min_cycle;Max_cycle;Signal;HPM_P1;HPM_P2
2023/09/01 00:01:42;;;;;;;2.15;1.38;;;15.50;99.90;;;;;;9705102;22;20177;-89
2023/09/01 00:05:32;;;;;;;4.65;1.20;;;15.40;99.90;;;;;;9706062;22;20661;-89
2023/09/01 00:09:17;;;;;;;1.63;0.95;;;15.40;99.90;;;;;;9706937;22;20176;-90
2023/09/01 00:13:03;;;;;;;1.05;1.02;;;15.40;99.90;;;;;;9706569;22;20235;-89
2023/09/01 00:16:48;;;;;;;1.17;1.05;;;15.40;99.90;;;;;;9706574;22;20203;-90
2023/09/01 00:20:34;;;;;;;1.00;1.00;;;15.40;99.90;;;;;;9707557;22;20184;-90
2023/09/01 00:24:20;;;;;;;1.75;1.23;;;15.30;99.90;;;;;;9733610;22;20633;-90
2023/09/01 00:28:06;;;;;;;2.03;1.05;;;15.30;99.90;;;;;;9706399;22;20172;-89
2023/09/01 00:31:51;;;;;;;1.30;1.10;;;15.30;99.90;;;;;;9706491;22;20180;-91
2023/09/01 00:35:37;;;;;;;1.20;0.98;;;15.30;99.90;;;;;;9705842;22;20529;-89
2023/09/01 00:39:23;;;;;;;1.42;1.02;;;15.30;99.90;;;;;;9705805;22;20177;-90
2023/09/01 00:43:08;;;;;;;1.70;1.13;;;15.30;99.90;;;;;;9733259;22;20153;-89
2023/09/01 00:46:54;;;;;;;2.05;1.13;;;15.30;99.90;;;;;;9732814;22;20188;-89
2023/09/01 00:50:41;;;;;;;2.80;1.20;;;15.20;99.90;;;;;;9733620;22;20173;-88
2023/09/01 00:54:27;;;;;;;1.83;1.30;;;15.20;99.90;;;;;;9706216;22;20159;-91
2023/09/01 00:58:14;;;;;;;1.38;1.13;;;15.20;99.90;;;;;;9706408;22;20269;-90
2023/09/01 01:01:59;;;;;;;1.70;1.30;;;15.20;99.90;;;;;;9707183;22;20177;-90
2023/09/01 01:06:00;;;;;;;2.67;1.13;;;15.20;99.90;;;;;;9735757;22;20149;-90
2023/09/01 01:09:54;;;;;;;3.33;1.40;;;15.20;99.90;;;;;;9735247;22;20248;-90
2023/09/01 01:13:47;;;;;;;1.67;1.30;;;15.20;99.90;;;;;;9709085;22;20157;-90
2023/09/01 01:17:33;;;;;;;2.22;1.50;;;15.20;99.90;;;;;;9708787;22;20913;-89
2023/09/01 01:21:26;;;;;;;2.13;1.20;;;15.20;99.90;;;;;;9709366;22;20193;-88
2023/09/01 01:25:12;;;;;;;2.90;1.20;;;15.10;99.90;;;;;;9709845;22;20165;-90
2023/09/01 01:28:58;;;;;;;1.65;1.27;;;15.10;99.90;;;;;;9708437;22;20576;-89
2023/09/01 01:32:44;;;;;;;1.98;1.45;;;15.10;99.90;;;;;;9708874;22;20184;-89
2023/09/01 01:36:46;;;;;;;2.75;1.70;;;15.00;99.90;;;;;;9707945;22;20232;-89
2023/09/01 01:40:33;;;;;;;2.90;1.42;;;15.00;99.90;;;;;;9708522;22;20506;-90
2023/09/01 01:44:25;;;;;;;2.45;1.50;;;15.00;99.90;;;;;;9708777;22;20165;-89
2023/09/01 01:48:11;;;;;;;2.70;1.40;;;15.00;99.90;;;;;;9708272;22;20172;-90
2023/09/01 01:51:58;;;;;;;2.67;1.73;;;14.90;99.90;;;;;;9708032;22;20180;-91
2023/09/01 01:55:43;;;;;;;4.13;1.67;;;14.90;99.90;;;;;;9708910;22;20204;-88
2023/09/01 01:59:29;;;;;;;2.10;1.63;;;14.90;99.90;;;;;;9708229;22;20187;-89
2023/09/01 02:03:15;;;;;;;2.30;1.60;;;14.90;99.90;;;;;;9708433;22;20159;-89
2023/09/01 02:07:00;;;;;;;2.22;1.55;;;14.80;99.90;;;;;;9734542;22;20164;-90
2023/09/01 02:10:48;;;;;;;3.97;1.58;;;14.80;99.90;;;;;;9707441;22;20181;-87
2023/09/01 02:14:37;;;;;;;2.23;1.70;;;14.80;99.90;;;;;;9708008;22;20186;-89
2023/09/01 02:18:23;;;;;;;4.17;1.77;;;14.80;99.90;;;;;;9707309;22;20628;-90
2023/09/01 02:22:08;;;;;;;2.90;2.00;;;14.80;99.90;;;;;;9707942;22;20195;-87
2023/09/01 02:25:55;;;;;;;3.00;1.70;;;14.70;99.90;;;;;;9707869;22;20657;-89
2023/09/01 02:29:41;;;;;;;4.10;2.13;;;14.60;99.90;;;;;;9707639;22;20184;-89
2023/09/01 02:33:27;;;;;;;4.03;1.75;;;14.60;99.90;;;;;;9707824;22;20161;-89
2023/09/01 02:37:12;;;;;;;4.75;2.10;;;14.60;99.90;;;;;;9734362;22;20261;-88
2023/09/01 02:40:58;;;;;;;3.40;2.03;;;14.50;99.90;;;;;;9734014;22;20230;-89
2023/09/01 02:44:44;;;;;;;5.70;2.30;;;14.50;99.90;;;;;;9707446;22;20186;-89
2023/09/01 02:48:29;;;;;;;4.35;1.90;;;14.50;99.90;;;;;;9734799;22;20163;-89
2023/09/01 02:52:15;;;;;;;3.95;2.13;;;14.50;99.90;;;;;;9707584;22;20211;-89
2023/09/01 02:56:02;;;;;;;7.95;2.72;;;14.50;99.90;;;;;;9707694;22;20188;-89
2023/09/01 02:59:48;;;;;;;5.33;2.37;;;14.40;99.90;;;;;;9733883;22;20199;-89
2023/09/01 03:03:35;;;;;;;7.63;2.50;;;14.30;99.90;;;;;;9707179;22;20148;-89
2023/09/01 03:07:21;;;;;;;6.10;2.50;;;14.30;99.90;;;;;;9734194;22;20184;-89
2023/09/01 03:11:07;;;;;;;3.77;2.07;;;14.20;99.90;;;;;;9707971;22;20180;-89
2023/09/01 03:14:53;;;;;;;5.67;2.50;;;14.20;99.90;;;;;;9707409;22;20320;-89
2023/09/01 03:18:38;;;;;;;5.97;2.53;;;14.20;99.90;;;;;;9707174;22;20184;-89
2023/09/01 03:22:24;;;;;;;4.38;2.10;;;14.20;99.90;;;;;;9707291;22;20160;-90
2023/09/01 03:26:09;;;;;;;5.07;2.30;;;14.30;99.90;;;;;;9706814;22;20164;-87
2023/09/01 03:29:56;;;;;;;5.90;2.30;;;14.30;99.90;;;;;;9734332;22;20176;-89
2023/09/01 03:33:42;;;;;;;3.80;2.58;;;14.30;99.90;;;;;;9707009;22;20501;-89
2023/09/01 03:37:27;;;;;;;7.15;3.15;;;14.30;99.90;;;;;;9734076;22;20184;-89
2023/09/01 03:41:13;;;;;;;4.83;2.40;;;14.20;99.90;;;;;;9707000;22;20179;-89
2023/09/01 03:44:59;;;;;;;5.75;2.88;;;14.10;99.90;;;;;;9707021;22;20157;-88
2023/09/01 03:48:44;;;;;;;4.10;2.60;;;14.20;99.90;;;;;;9706620;22;20160;-89
2023/09/01 03:52:30;;;;;;;4.47;2.58;;;14.20;99.90;;;;;;9707638;22;20203;-87
2023/09/01 03:56:20;;;;;;;5.05;2.58;;;14.20;99.90;;;;;;9707037;22;20200;-87
2023/09/01 04:00:09;;;;;;;2.88;2.30;;;14.20;99.90;;;;;;9706114;22;20175;-88
2023/09/01 04:03:55;;;;;;;5.45;2.75;;;14.20;99.90;;;;;;9705332;22;20210;-89
2023/09/01 04:07:41;;;;;;;3.40;2.40;;;14.20;99.90;;;;;;9705626;22;20251;-88
2023/09/01 04:11:26;;;;;;;3.20;2.20;;;14.20;99.90;;;;;;9703591;22;20180;-88
2023/09/01 04:15:12;;;;;;;5.25;2.08;;;14.20;99.90;;;;;;9704703;22;20164;-88
2023/09/01 04:18:58;;;;;;;2.55;1.90;;;14.20;99.90;;;;;;9728134;22;20234;-89
2023/09/01 04:22:45;;;;;;;3.92;2.28;;;14.20;99.90;;;;;;9704074;22;20172;-89
2023/09/01 04:26:31;;;;;;;5.20;2.70;;;14.20;99.90;;;;;;9703481;22;20152;-89
2023/09/01 04:30:17;;;;;;;5.07;2.17;;;14.20;99.90;;;;;;9729502;22;20613;-88
2023/09/01 04:34:03;;;;;;;4.15;2.30;;;14.20;99.90;;;;;;9702688;22;20223;-89
2023/09/01 04:37:48;;;;;;;3.72;2.10;;;14.20;99.90;;;;;;9704376;22;20243;-89
2023/09/01 04:41:34;;;;;;;5.43;2.37;;;14.20;99.90;;;;;;9703544;22;20181;-89
2023/09/01 04:45:25;;;;;;;4.25;2.40;;;14.20;99.90;;;;;;9707244;22;20156;-89
2023/09/01 04:49:11;;;;;;;3.33;2.10;;;14.20;99.90;;;;;;9705010;22;20255;-90
2023/09/01 04:52:57;;;;;;;3.47;1.83;;;14.20;99.90;;;;;;9703667;22;20187;-89
2023/09/01 04:56:42;;;;;;;5.80;2.20;;;14.10;99.90;;;;;;9705758;22;20184;-89
2023/09/01 05:00:28;;;;;;;3.13;2.30;;;14.10;99.90;;;;;;9707292;22;20184;-88
2023/09/01 05:04:15;;;;;;;4.90;2.30;;;14.10;99.90;;;;;;9707100;22;20149;-90
2023/09/01 05:08:01;;;;;;;3.57;2.17;;;14.10;99.90;;;;;;9707158;22;20157;-89
2023/09/01 05:11:47;;;;;;;4.20;2.00;;;14.10;99.90;;;;;;9707553;22;20693;-87
2023/09/01 05:15:32;;;;;;;3.57;2.23;;;14.10;99.90;;;;;;9707357;22;20163;-89
2023/09/01 05:19:18;;;;;;;5.67;2.43;;;14.10;99.90;;;;;;9708882;22;20181;-89
2023/09/01 05:23:04;;;;;;;3.70;2.37;;;14.10;99.90;;;;;;9709579;22;20163;-90
2023/09/01 05:26:49;;;;;;;3.77;2.50;;;14.20;99.90;;;;;;9709881;22;20161;-89
2023/09/01 05:30:37;;;;;;;5.10;2.53;;;14.20;99.90;;;;;;9736391;22;20251;-89
2023/09/01 05:34:23;;;;;;;4.80;2.60;;;14.20;99.90;;;;;;9710000;22;20648;-89
2023/09/01 05:38:09;;;;;;;3.33;2.23;;;14.20;99.90;;;;;;9709517;22;20228;-90
2023/09/01 05:41:55;;;;;;;5.27;2.50;;;14.20;99.90;;;;;;9709834;22;20663;-89
2023/09/01 05:45:40;;;;;;;8.07;2.30;;;14.10;99.90;;;;;;9709717;22;20148;-89
2023/09/01 05:49:26;;;;;;;4.87;2.83;;;14.10;99.90;;;;;;9708908;22;20268;-89
2023/09/01 05:53:11;;;;;;;10.40;2.73;;;14.10;99.90;;;;;;9709979;22;20542;-89
2023/09/01 05:56:57;;;;;;;6.07;2.77;;;14.10;99.90;;;;;;9709640;22;20191;-90
2023/09/01 06:00:43;;;;;;;2.83;2.50;;;14.10;99.90;;;;;;9709534;22;20172;-90
2023/09/01 06:04:28;;;;;;;6.93;2.53;;;14.10;99.90;;;;;;9709497;22;20563;-89
2023/09/01 06:08:14;;;;;;;9.47;3.03;;;14.10;99.90;;;;;;9709156;22;20164;-90
2023/09/01 06:11:59;;;;;;;6.17;2.87;;;14.10;99.90;;;;;;9736259;22;20168;-90
2023/09/01 06:15:45;;;;;;;5.37;2.77;;;14.10;99.90;;;;;;9736051;22;20157;-89
2023/09/01 06:19:31;;;;;;;10.00;3.20;;;14.10;99.90;;;;;;9709033;22;20270;-88
2023/09/01 06:23:17;;;;;;;6.03;2.90;;;14.10;99.90;;;;;;9736579;22;20153;-90
2023/09/01 06:27:03;;;;;;;5.13;2.57;;;14.10;99.90;;;;;;9709206;22;20165;-90
2023/09/01 06:30:49;;;;;;;8.77;2.70;;;14.10;99.90;;;;;;9735672;22;20305;-90
2023/09/01 06:34:35;;;;;;;7.13;3.03;;;14.20;99.90;;;;;;9709879;22;20502;-90
2023/09/01 06:38:21;;;;;;;7.17;2.90;;;14.20;99.90;;;;;;9709057;22;20749;-90
2023/09/01 06:42:07;;;;;;;6.77;3.30;;;14.30;99.90;;;;;;9708854;22;20624;-90
2023/09/01 06:45:54;;;;;;;6.80;2.90;;;14.30;99.90;;;;;;9708543;22;20171;-86
2023/09/01 06:49:40;;;;;;;7.97;2.80;;;14.40;99.90;;;;;;9707192;22;20192;-86
2023/09/01 06:53:26;;;;;;;5.57;2.53;;;14.60;99.90;;;;;;9708051;22;20222;-86
2023/09/01 06:57:11;;;;;;;7.80;3.17;;;14.70;99.90;;;;;;9707407;22;20245;-86
2023/09/01 07:01:05;;;;;;;8.13;2.97;;;14.90;99.90;;;;;;9707475;22;20180;-87
2023/09/01 07:04:51;;;;;;;12.63;4.13;;;15.00;99.90;;;;;;9707678;22;20149;-87
2023/09/01 07:08:37;;;;;;;8.67;3.27;;;15.10;99.90;;;;;;9734542;22;20156;-87
2023/09/01 07:12:22;;;;;;;10.73;3.00;;;15.30;99.90;;;;;;9707635;22;20185;-88
2023/09/01 07:16:08;;;;;;;4.37;3.20;;;15.50;99.90;;;;;;9707346;22;20190;-87
2023/09/01 07:19:54;;;;;;;4.93;2.93;;;15.50;99.90;;;;;;9734424;22;20164;-88
2023/09/01 07:23:39;;;;;;;9.40;3.20;;;15.50;99.90;;;;;;9707565;22;20153;-86
2023/09/01 07:27:25;;;;;;;8.40;3.03;;;15.70;99.90;;;;;;9734042;22;20183;-88
2023/09/01 07:31:12;;;;;;;6.53;3.13;;;15.90;99.90;;;;;;9734305;22;20826;-87
2023/09/01 07:35:03;;;;;;;14.53;3.27;;;16.10;99.90;;;;;;9707187;22;20196;-88
2023/09/01 07:38:49;;;;;;;7.90;3.00;;;16.20;99.90;;;;;;9706757;22;20244;-86
2023/09/01 07:42:34;;;;;;;13.15;3.67;;;16.40;99.90;;;;;;9707335;22;20161;-89
2023/09/01 07:46:20;;;;;;;9.33;3.57;;;16.50;99.90;;;;;;9707430;22;20165;-87
2023/09/01 07:50:07;;;;;;;8.13;3.15;;;16.60;99.90;;;;;;9706687;22;20242;-90
